sensor_id;sensor_type;location;lat;lon;timestamp;P1;durP1;ratioP1;P2;durP2;ratioP2
8791;SDS011;4432;50.890;4.744;2023-03-14T00:00:55;2.17;;;0.77;;
8791;SDS011;4432;50.890;4.744;2023-03-14T00:03:21;0.90;;;0.57;;
8791;SDS011;4432;50.890;4.744;2023-03-14T00:05:46;3.33;;;0.90;;
8791;SDS011;4432;50.890;4.744;2023-03-14T00:08:12;1.27;;;0.60;;
8791;SDS011;4432;50.890;4.744;2023-03-14T00:10:39;2.07;;;1.00;;
8791;SDS011;4432;50.890;4.744;2023-03-14T00:13:04;2.70;;;1.00;;
8791;SDS011;4432;50.890;4.744;2023-03-14T00:15:32;1.10;;;0.63;;
8791;SDS011;4432;50.890;4.744;2023-03-14T00:17:58;1.30;;;0.83;;
8791;SDS011;4432;50.890;4.744;2023-03-14T00:20:24;2.00;;;0.77;;
8791;SDS011;4432;50.890;4.744;2023-03-14T00:22:50;2.43;;;0.90;;
8791;SDS011;4432;50.890;4.744;2023-03-14T00:25:16;3.70;;;1.20;;
8791;SDS011;4432;50.890;4.744;2023-03-14T00:27:41;0.83;;;0.80;;
8791;SDS011;4432;50.890;4.744;2023-03-14T00:30:09;3.83;;;1.17;;
8791;SDS011;4432;50.890;4.744;2023-03-14T00:32:35;2.20;;;1.07;;
8791;SDS011;4432;50.890;4.744;2023-03-14T00:35:01;1.93;;;1.00;;
8791;SDS011;4432;50.890;4.744;2023-03-14T00:37:28;4.10;;;1.10;;
8791;SDS011;4432;50.890;4.744;2023-03-14T00:39:54;5.33;;;1.17;;
8791;SDS011;4432;50.890;4.744;2023-03-14T00:42:20;2.00;;;1.07;;
8791;SDS011;4432;50.890;4.744;2023-03-14T00:44:46;3.03;;;1.07;;
8791;SDS011;4432;50.890;4.744;2023-03-14T00:47:11;3.20;;;1.30;;
8791;SDS011;4432;50.890;4.744;2023-03-14T00:49:37;3.70;;;1.17;;
8791;SDS011;4432;50.890;4.744;2023-03-14T00:52:03;2.10;;;0.83;;
8791;SDS011;4432;50.890;4.744;2023-03-14T00:54:29;2.83;;;0.80;;
8791;SDS011;4432;50.890;4.744;2023-03-14T00:56:55;2.37;;;0.90;;
8791;SDS011;4432;50.890;4.744;2023-03-14T00:59:21;4.40;;;0.97;;
8791;SDS011;4432;50.890;4.744;2023-03-14T01:01:47;3.77;;;1.30;;
8791;SDS011;4432;50.890;4.744;2023-03-14T01:04:13;2.70;;;1.00;;
8791;SDS011;4432;50.890;4.744;2023-03-14T01:06:39;10.27;;;1.60;;
8791;SDS011;4432;50.890;4.744;2023-03-14T01:09:05;3.23;;;1.07;;
8791;SDS011;4432;50.890;4.744;2023-03-14T01:11:31;1.60;;;0.73;;
8791;SDS011;4432;50.890;4.744;2023-03-14T01:13:58;4.07;;;1.33;;
8791;SDS011;4432;50.890;4.744;2023-03-14T01:16:25;3.27;;;1.10;;
8791;SDS011;4432;50.890;4.744;2023-03-14T01:18:52;2.77;;;1.40;;
8791;SDS011;4432;50.890;4.744;2023-03-14T01:21:20;4.93;;;1.17;;
8791;SDS011;4432;50.890;4.744;2023-03-14T01:23:50;2.43;;;1.07;;
8791;SDS011;4432;50.890;4.744;2023-03-14T01:26:18;6.27;;;1.40;;
8791;SDS011;4432;50.890;4.744;2023-03-14T01:28:46;1.30;;;1.20;;
8791;SDS011;4432;50.890;4.744;2023-03-14T01:31:12;3.00;;;0.90;;
8791;SDS011;4432;50.890;4.744;2023-03-14T01:33:38;3.40;;;0.93;;
8791;SDS011;4432;50.890;4.744;2023-03-14T01:36:05;2.40;;;1.13;;
8791;SDS011;4432;50.890;4.744;2023-03-14T01:38:32;4.30;;;1.20;;
8791;SDS011;4432;50.890;4.744;2023-03-14T01:40:59;6.90;;;1.30;;
8791;SDS011;4432;50.890;4.744;2023-03-14T01:43:26;2.77;;;1.23;;
8791;SDS011;4432;50.890;4.744;2023-03-14T01:56:59;6.83;;;1.40;;
8791;SDS011;4432;50.890;4.744;2023-03-14T01:59:52;3.30;;;1.23;;
8791;SDS011;4432;50.890;4.744;2023-03-14T02:02:36;4.10;;;1.47;;
8791;SDS011;4432;50.890;4.744;2023-03-14T02:05:04;3.60;;;1.13;;
8791;SDS011;4432;50.890;4.744;2023-03-14T02:07:39;2.50;;;1.13;;
8791;SDS011;4432;50.890;4.744;2023-03-14T02:10:12;4.63;;;0.97;;
8791;SDS011;4432;50.890;4.744;2023-03-14T02:12:41;1.03;;;0.67;;
8791;SDS011;4432;50.890;4.744;2023-03-14T02:15:07;1.60;;;0.67;;
8791;SDS011;4432;50.890;4.744;2023-03-14T02:17:34;1.63;;;0.67;;
8791;SDS011;4432;50.890;4.744;2023-03-14T02:20:07;0.90;;;0.63;;
8791;SDS011;4432;50.890;4.744;2023-03-14T02:22:36;1.03;;;0.40;;
8791;SDS011;4432;50.890;4.744;2023-03-14T02:25:07;1.97;;;1.00;;
8791;SDS011;4432;50.890;4.744;2023-03-14T02:27:34;5.30;;;1.20;;
8791;SDS011;4432;50.890;4.744;2023-03-14T02:32:31;1.50;;;0.50;;
8791;SDS011;4432;50.890;4.744;2023-03-14T02:35:00;3.30;;;0.60;;
8791;SDS011;4432;50.890;4.744;2023-03-14T02:37:39;2.87;;;0.57;;
8791;SDS011;4432;50.890;4.744;2023-03-14T02:40:12;2.63;;;0.73;;
8791;SDS011;4432;50.890;4.744;2023-03-14T02:42:38;3.40;;;0.80;;
8791;SDS011;4432;50.890;4.744;2023-03-14T02:47:33;5.60;;;1.00;;
8791;SDS011;4432;50.890;4.744;2023-03-14T02:50:01;1.03;;;0.47;;
8791;SDS011;4432;50.890;4.744;2023-03-14T02:52:33;8.87;;;1.13;;
8791;SDS011;4432;50.890;4.744;2023-03-14T02:54:59;3.60;;;0.47;;
8791;SDS011;4432;50.890;4.744;2023-03-14T02:57:24;0.40;;;0.40;;
8791;SDS011;4432;50.890;4.744;2023-03-14T02:59:50;1.83;;;0.40;;
8791;SDS011;4432;50.890;4.744;2023-03-14T03:02:16;1.67;;;0.67;;
8791;SDS011;4432;50.890;4.744;2023-03-14T03:04:42;0.57;;;0.40;;
8791;SDS011;4432;50.890;4.744;2023-03-14T03:07:08;1.57;;;0.70;;
8791;SDS011;4432;50.890;4.744;2023-03-14T03:09:34;1.90;;;0.83;;
8791;SDS011;4432;50.890;4.744;2023-03-14T03:11:59;0.57;;;0.47;;
8791;SDS011;4432;50.890;4.744;2023-03-14T03:14:25;1.57;;;0.77;;
8791;SDS011;4432;50.890;4.744;2023-03-14T03:16:51;1.40;;;0.60;;
8791;SDS011;4432;50.890;4.744;2023-03-14T03:19:16;0.63;;;0.50;;
8791;SDS011;4432;50.890;4.744;2023-03-14T03:21:43;8.20;;;1.20;;
8791;SDS011;4432;50.890;4.744;2023-03-14T03:24:09;2.17;;;0.77;;
8791;SDS011;4432;50.890;4.744;2023-03-14T03:26:35;6.37;;;1.27;;
8791;SDS011;4432;50.890;4.744;2023-03-14T03:29:01;2.97;;;0.77;;
8791;SDS011;4432;50.890;4.744;2023-03-14T03:31:28;5.03;;;1.27;;
8791;SDS011;4432;50.890;4.744;2023-03-14T03:33:54;3.83;;;1.20;;
8791;SDS011;4432;50.890;4.744;2023-03-14T03:36:23;1.83;;;1.10;;
8791;SDS011;4432;50.890;4.744;2023-03-14T03:38:50;5.30;;;1.43;;
8791;SDS011;4432;50.890;4.744;2023-03-14T03:41:16;6.80;;;1.30;;
8791;SDS011;4432;50.890;4.744;2023-03-14T03:43:42;3.47;;;1.20;;
8791;SDS011;4432;50.890;4.744;2023-03-14T03:46:08;4.97;;;1.67;;
8791;SDS011;4432;50.890;4.744;2023-03-14T03:48:34;3.57;;;1.43;;
8791;SDS011;4432;50.890;4.744;2023-03-14T03:51:00;5.33;;;1.40;;
8791;SDS011;4432;50.890;4.744;2023-03-14T03:53:26;7.27;;;1.87;;
8791;SDS011;4432;50.890;4.744;2023-03-14T03:55:52;7.90;;;1.70;;
8791;SDS011;4432;50.890;4.744;2023-03-14T03:58:18;3.60;;;1.77;;
8791;SDS011;4432;50.890;4.744;2023-03-14T04:00:44;2.83;;;1.50;;
8791;SDS011;4432;50.890;4.744;2023-03-14T04:03:10;8.27;;;1.57;;
8791;SDS011;4432;50.890;4.744;2023-03-14T04:05:36;6.63;;;1.40;;
8791;SDS011;4432;50.890;4.744;2023-03-14T04:08:02;4.13;;;1.23;;
8791;SDS011;4432;50.890;4.744;2023-03-14T04:10:28;8.30;;;1.97;;
8791;SDS011;4432;50.890;4.744;2023-03-14T04:12:55;3.80;;;1.40;;
8791;SDS011;4432;50.890;4.744;2023-03-14T04:15:20;1.27;;;1.00;;
8791;SDS011;4432;50.890;4.744;2023-03-14T04:17:46;2.63;;;1.30;;
8791;SDS011;4432;50.890;4.744;2023-03-14T04:20:12;8.23;;;1.70;;
8791;SDS011;4432;50.890;4.744;2023-03-14T04:22:38;1.97;;;1.20;;
8791;SDS011;4432;50.890;4.744;2023-03-14T04:25:04;2.57;;;1.30;;
8791;SDS011;4432;50.890;4.744;2023-03-14T04:27:31;2.03;;;1.13;;
8791;SDS011;4432;50.890;4.744;2023-03-14T04:29:56;2.60;;;1.53;;
8791;SDS011;4432;50.890;4.744;2023-03-14T04:32:22;7.40;;;1.50;;
8791;SDS011;4432;50.890;4.744;2023-03-14T04:34:48;5.00;;;1.50;;
8791;SDS011;4432;50.890;4.744;2023-03-14T04:37:14;1.83;;;1.30;;
8791;SDS011;4432;50.890;4.744;2023-03-14T04:39:40;4.73;;;1.87;;
8791;SDS011;4432;50.890;4.744;2023-03-14T04:42:06;4.93;;;1.40;;
8791;SDS011;4432;50.890;4.744;2023-03-14T04:44:32;1.43;;;0.90;;
8791;SDS011;4432;50.890;4.744;2023-03-14T04:46:58;1.77;;;1.10;;
8791;SDS011;4432;50.890;4.744;2023-03-14T04:49:24;2.83;;;1.27;;
8791;SDS011;4432;50.890;4.744;2023-03-14T04:51:49;2.77;;;1.47;;
8791;SDS011;4432;50.890;4.744;2023-03-14T04:54:18;4.23;;;1.40;;
8791;SDS011;4432;50.890;4.744;2023-03-14T04:56:44;3.93;;;1.60;;
8791;SDS011;4432;50.890;4.744;2023-03-14T04:59:09;1.17;;;1.07;;
8791;SDS011;4432;50.890;4.744;2023-03-14T05:01:35;1.77;;;1.10;;
8791;SDS011;4432;50.890;4.744;2023-03-14T05:04:01;3.13;;;1.20;;
8791;SDS011;4432;50.890;4.744;2023-03-14T05:06:27;2.63;;;1.27;;
8791;SDS011;4432;50.890;4.744;2023-03-14T05:08:52;9.57;;;1.60;;
8791;SDS011;4432;50.890;4.744;2023-03-14T05:11:18;1.83;;;0.97;;
8791;SDS011;4432;50.890;4.744;2023-03-14T05:13:44;1.77;;;1.10;;
8791;SDS011;4432;50.890;4.744;2023-03-14T05:16:10;3.13;;;0.80;;
8791;SDS011;4432;50.890;4.744;2023-03-14T05:18:36;4.00;;;1.13;;
8791;SDS011;4432;50.890;4.744;2023-03-14T05:21:02;2.13;;;1.33;;
8791;SDS011;4432;50.890;4.744;2023-03-14T05:23:29;3.53;;;1.47;;
8791;SDS011;4432;50.890;4.744;2023-03-14T05:25:55;4.70;;;1.27;;
8791;SDS011;4432;50.890;4.744;2023-03-14T05:28:21;1.70;;;1.20;;
8791;SDS011;4432;50.890;4.744;2023-03-14T05:30:46;3.80;;;1.10;;
8791;SDS011;4432;50.890;4.744;2023-03-14T05:33:12;5.90;;;1.40;;
8791;SDS011;4432;50.890;4.744;2023-03-14T05:35:38;1.00;;;1.00;;
8791;SDS011;4432;50.890;4.744;2023-03-14T05:38:04;6.17;;;1.50;;
8791;SDS011;4432;50.890;4.744;2023-03-14T05:40:30;4.23;;;1.10;;
8791;SDS011;4432;50.890;4.744;2023-03-14T05:42:56;1.57;;;1.33;;
8791;SDS011;4432;50.890;4.744;2023-03-14T05:45:21;2.90;;;1.20;;
8791;SDS011;4432;50.890;4.744;2023-03-14T05:47:47;1.17;;;1.07;;
8791;SDS011;4432;50.890;4.744;2023-03-14T05:50:13;2.83;;;1.70;;
8791;SDS011;4432;50.890;4.744;2023-03-14T05:52:39;1.20;;;1.10;;
8791;SDS011;4432;50.890;4.744;2023-03-14T05:55:04;1.13;;;1.00;;
8791;SDS011;4432;50.890;4.744;2023-03-14T05:57:30;1.63;;;0.97;;
8791;SDS011;4432;50.890;4.744;2023-03-14T05:59:56;1.57;;;1.23;;
8791;SDS011;4432;50.890;4.744;2023-03-14T06:02:22;1.13;;;1.03;;
8791;SDS011;4432;50.890;4.744;2023-03-14T06:04:48;1.83;;;1.17;;
8791;SDS011;4432;50.890;4.744;2023-03-14T06:07:13;1.73;;;1.40;;
8791;SDS011;4432;50.890;4.744;2023-03-14T06:09:39;1.53;;;1.17;;
8791;SDS011;4432;50.890;4.744;2023-03-14T06:12:05;1.77;;;1.50;;
8791;SDS011;4432;50.890;4.744;2023-03-14T06:14:31;2.13;;;1.43;;
8791;SDS011;4432;50.890;4.744;2023-03-14T06:16:57;2.23;;;1.50;;
8791;SDS011;4432;50.890;4.744;2023-03-14T06:19:24;6.47;;;1.80;;
8791;SDS011;4432;50.890;4.744;2023-03-14T06:21:51;2.53;;;1.90;;
8791;SDS011;4432;50.890;4.744;2023-03-14T06:24:17;2.50;;;1.73;;
8791;SDS011;4432;50.890;4.744;2023-03-14T06:26:42;1.53;;;1.43;;
8791;SDS011;4432;50.890;4.744;2023-03-14T06:29:09;3.73;;;2.07;;
8791;SDS011;4432;50.890;4.744;2023-03-14T06:31:35;2.07;;;1.73;;
8791;SDS011;4432;50.890;4.744;2023-03-14T06:34:01;3.37;;;1.93;;
8791;SDS011;4432;50.890;4.744;2023-03-14T06:36:27;2.97;;;2.40;;
8791;SDS011;4432;50.890;4.744;2023-03-14T06:38:52;3.90;;;2.47;;
8791;SDS011;4432;50.890;4.744;2023-03-14T06:41:18;5.47;;;2.40;;
8791;SDS011;4432;50.890;4.744;2023-03-14T06:43:44;4.00;;;2.20;;
8791;SDS011;4432;50.890;4.744;2023-03-14T06:46:10;3.87;;;2.13;;
8791;SDS011;4432;50.890;4.744;2023-03-14T06:48:35;4.60;;;2.33;;
8791;SDS011;4432;50.890;4.744;2023-03-14T06:51:01;4.50;;;2.33;;
8791;SDS011;4432;50.890;4.744;2023-03-14T06:53:27;3.53;;;2.27;;
8791;SDS011;4432;50.890;4.744;2023-03-14T06:55:53;3.13;;;2.03;;
8791;SDS011;4432;50.890;4.744;2023-03-14T06:58:18;2.80;;;2.23;;
8791;SDS011;4432;50.890;4.744;2023-03-14T07:00:44;2.53;;;1.90;;
8791;SDS011;4432;50.890;4.744;2023-03-14T07:03:10;2.87;;;2.03;;
8791;SDS011;4432;50.890;4.744;2023-03-14T07:05:37;3.87;;;2.10;;
8791;SDS011;4432;50.890;4.744;2023-03-14T07:08:05;2.73;;;2.10;;
8791;SDS011;4432;50.890;4.744;2023-03-14T07:10:32;4.00;;;2.20;;
8791;SDS011;4432;50.890;4.744;2023-03-14T07:12:58;1.80;;;1.10;;
8791;SDS011;4432;50.890;4.744;2023-03-14T07:15:23;2.17;;;1.20;;
8791;SDS011;4432;50.890;4.744;2023-03-14T07:17:49;2.73;;;1.10;;
8791;SDS011;4432;50.890;4.744;2023-03-14T07:20:15;0.97;;;0.93;;
8791;SDS011;4432;50.890;4.744;2023-03-14T07:22:41;2.17;;;1.00;;
8791;SDS011;4432;50.890;4.744;2023-03-14T07:25:07;0.63;;;0.63;;
8791;SDS011;4432;50.890;4.744;2023-03-14T07:27:36;0.80;;;0.80;;
8791;SDS011;4432;50.890;4.744;2023-03-14T07:30:02;0.87;;;0.87;;
8791;SDS011;4432;50.890;4.744;2023-03-14T07:32:29;0.63;;;0.50;;
8791;SDS011;4432;50.890;4.744;2023-03-14T07:34:54;1.10;;;0.90;;
8791;SDS011;4432;50.890;4.744;2023-03-14T07:37:20;0.90;;;0.67;;
8791;SDS011;4432;50.890;4.744;2023-03-14T07:39:46;2.67;;;0.60;;
8791;SDS011;4432;50.890;4.744;2023-03-14T07:42:11;0.67;;;0.67;;
8791;SDS011;4432;50.890;4.744;2023-03-14T07:44:37;1.73;;;0.60;;
8791;SDS011;4432;50.890;4.744;2023-03-14T07:47:03;0.60;;;0.60;;
8791;SDS011;4432;50.890;4.744;2023-03-14T07:49:29;2.50;;;0.97;;
8791;SDS011;4432;50.890;4.744;2023-03-14T07:51:54;1.13;;;0.80;;
8791;SDS011;4432;50.890;4.744;2023-03-14T07:54:20;1.10;;;1.00;;
8791;SDS011;4432;50.890;4.744;2023-03-14T07:56:46;1.23;;;0.80;;
8791;SDS011;4432;50.890;4.744;2023-03-14T07:59:11;2.30;;;0.90;;
8791;SDS011;4432;50.890;4.744;2023-03-14T08:01:37;8.47;;;1.20;;
8791;SDS011;4432;50.890;4.744;2023-03-14T08:04:03;0.80;;;0.80;;
8791;SDS011;4432;50.890;4.744;2023-03-14T08:06:29;4.63;;;0.90;;
8791;SDS011;4432;50.890;4.744;2023-03-14T08:08:55;6.53;;;1.50;;
8791;SDS011;4432;50.890;4.744;2023-03-14T08:11:20;2.50;;;1.23;;
8791;SDS011;4432;50.890;4.744;2023-03-14T08:13:46;3.17;;;1.07;;
8791;SDS011;4432;50.890;4.744;2023-03-14T08:16:17;3.30;;;1.20;;
8791;SDS011;4432;50.890;4.744;2023-03-14T08:18:43;2.63;;;1.30;;
8791;SDS011;4432;50.890;4.744;2023-03-14T08:21:10;1.20;;;1.10;;
8791;SDS011;4432;50.890;4.744;2023-03-14T08:23:36;1.47;;;1.20;;
8791;SDS011;4432;50.890;4.744;2023-03-14T08:26:01;2.80;;;1.43;;
8791;SDS011;4432;50.890;4.744;2023-03-14T08:28:27;5.20;;;1.53;;
8791;SDS011;4432;50.890;4.744;2023-03-14T08:30:58;8.63;;;2.00;;
8791;SDS011;4432;50.890;4.744;2023-03-14T08:33:26;4.77;;;1.67;;
8791;SDS011;4432;50.890;4.744;2023-03-14T08:35:57;3.03;;;1.93;;
8791;SDS011;4432;50.890;4.744;2023-03-14T08:38:24;4.03;;;2.40;;
8791;SDS011;4432;50.890;4.744;2023-03-14T08:40:54;8.20;;;2.47;;
8791;SDS011;4432;50.890;4.744;2023-03-14T08:43:21;2.93;;;2.60;;
8791;SDS011;4432;50.890;4.744;2023-03-14T08:45:48;2.40;;;2.17;;
8791;SDS011;4432;50.890;4.744;2023-03-14T08:48:13;5.67;;;1.93;;
8791;SDS011;4432;50.890;4.744;2023-03-14T08:50:39;7.87;;;2.43;;
8791;SDS011;4432;50.890;4.744;2023-03-14T08:53:05;3.43;;;1.77;;
8791;SDS011;4432;50.890;4.744;2023-03-14T08:55:31;3.30;;;1.47;;
8791;SDS011;4432;50.890;4.744;2023-03-14T08:57:57;3.50;;;1.20;;
8791;SDS011;4432;50.890;4.744;2023-03-14T09:00:22;3.37;;;1.70;;
8791;SDS011;4432;50.890;4.744;2023-03-14T09:02:48;1.20;;;1.10;;
8791;SDS011;4432;50.890;4.744;2023-03-14T09:05:15;1.77;;;0.93;;
8791;SDS011;4432;50.890;4.744;2023-03-14T09:07:41;1.40;;;1.20;;
8791;SDS011;4432;50.890;4.744;2023-03-14T09:10:07;3.73;;;1.50;;
8791;SDS011;4432;50.890;4.744;2023-03-14T09:12:34;3.73;;;1.70;;
8791;SDS011;4432;50.890;4.744;2023-03-14T09:14:59;1.80;;;1.70;;
8791;SDS011;4432;50.890;4.744;2023-03-14T09:17:25;3.70;;;1.13;;
8791;SDS011;4432;50.890;4.744;2023-03-14T09:19:51;1.17;;;1.07;;
8791;SDS011;4432;50.890;4.744;2023-03-14T09:22:17;3.57;;;1.53;;
8791;SDS011;4432;50.890;4.744;2023-03-14T09:24:43;1.73;;;1.63;;
8791;SDS011;4432;50.890;4.744;2023-03-14T09:27:09;2.17;;;1.77;;
8791;SDS011;4432;50.890;4.744;2023-03-14T09:29:35;4.23;;;2.00;;
8791;SDS011;4432;50.890;4.744;2023-03-14T09:32:00;3.40;;;2.40;;
8791;SDS011;4432;50.890;4.744;2023-03-14T09:34:26;3.33;;;1.73;;
8791;SDS011;4432;50.890;4.744;2023-03-14T09:36:52;1.73;;;1.47;;
8791;SDS011;4432;50.890;4.744;2023-03-14T09:39:18;2.73;;;1.40;;
8791;SDS011;4432;50.890;4.744;2023-03-14T09:41:44;2.23;;;1.80;;
8791;SDS011;4432;50.890;4.744;2023-03-14T09:44:20;1.47;;;1.37;;
8791;SDS011;4432;50.890;4.744;2023-03-14T09:46:53;1.50;;;1.40;;
8791;SDS011;4432;50.890;4.744;2023-03-14T09:49:30;3.03;;;1.70;;
8791;SDS011;4432;50.890;4.744;2023-03-14T09:51:59;1.87;;;1.60;;
8791;SDS011;4432;50.890;4.744;2023-03-14T09:54:31;1.60;;;1.50;;
8791;SDS011;4432;50.890;4.744;2023-03-14T09:57:04;3.93;;;1.90;;
8791;SDS011;4432;50.890;4.744;2023-03-14T09:59:31;2.20;;;1.60;;
8791;SDS011;4432;50.890;4.744;2023-03-14T10:02:02;3.77;;;2.00;;
8791;SDS011;4432;50.890;4.744;2023-03-14T10:04:58;3.13;;;2.00;;
8791;SDS011;4432;50.890;4.744;2023-03-14T10:07:29;5.13;;;2.23;;
8791;SDS011;4432;50.890;4.744;2023-03-14T10:09:56;4.67;;;1.70;;
8791;SDS011;4432;50.890;4.744;2023-03-14T10:12:33;4.57;;;1.90;;
8791;SDS011;4432;50.890;4.744;2023-03-14T10:15:03;3.50;;;1.80;;
8791;SDS011;4432;50.890;4.744;2023-03-14T10:17:50;2.87;;;1.70;;
8791;SDS011;4432;50.890;4.744;2023-03-14T10:25:41;4.30;;;2.00;;
8791;SDS011;4432;50.890;4.744;2023-03-14T10:28:25;11.47;;;1.93;;
8791;SDS011;4432;50.890;4.744;2023-03-14T10:30:55;4.23;;;2.00;;
8791;SDS011;4432;50.890;4.744;2023-03-14T10:35:55;3.70;;;1.80;;
8791;SDS011;4432;50.890;4.744;2023-03-14T10:38:27;1.63;;;1.53;;
8791;SDS011;4432;50.890;4.744;2023-03-14T10:40:55;2.60;;;2.03;;
8791;SDS011;4432;50.890;4.744;2023-03-14T10:43:23;2.87;;;1.63;;
8791;SDS011;4432;50.890;4.744;2023-03-14T10:45:59;6.23;;;1.83;;
8791;SDS011;4432;50.890;4.744;2023-03-14T10:48:39;6.43;;;1.17;;
8791;SDS011;4432;50.890;4.744;2023-03-14T10:53:50;1.57;;;1.20;;
8791;SDS011;4432;50.890;4.744;2023-03-14T10:56:23;0.97;;;0.77;;
8791;SDS011;4432;50.890;4.744;2023-03-14T10:58:51;0.83;;;0.83;;
8791;SDS011;4432;50.890;4.744;2023-03-14T11:04:10;2.67;;;0.50;;
8791;SDS011;4432;50.890;4.744;2023-03-14T11:09:32;0.60;;;0.60;;
8791;SDS011;4432;50.890;4.744;2023-03-14T11:14:41;0.90;;;0.90;;
8791;SDS011;4432;50.890;4.744;2023-03-14T11:17:15;0.63;;;0.63;;
8791;SDS011;4432;50.890;4.744;2023-03-14T11:22:20;0.40;;;0.40;;
8791;SDS011;4432;50.890;4.744;2023-03-14T11:27:40;0.43;;;0.43;;
8791;SDS011;4432;50.890;4.744;2023-03-14T11:30:16;0.40;;;0.40;;
8791;SDS011;4432;50.890;4.744;2023-03-14T11:35:52;0.87;;;0.67;;
8791;SDS011;4432;50.890;4.744;2023-03-14T11:38:42;0.93;;;0.40;;
8791;SDS011;4432;50.890;4.744;2023-03-14T11:41:17;1.17;;;0.83;;
8791;SDS011;4432;50.890;4.744;2023-03-14T11:43:48;0.63;;;0.63;;
8791;SDS011;4432;50.890;4.744;2023-03-14T11:46:24;0.60;;;0.60;;
8791;SDS011;4432;50.890;4.744;2023-03-14T11:51:50;0.57;;;0.57;;
8791;SDS011;4432;50.890;4.744;2023-03-14T11:54:25;0.53;;;0.43;;
8791;SDS011;4432;50.890;4.744;2023-03-14T11:57:01;0.37;;;0.37;;
8791;SDS011;4432;50.890;4.744;2023-03-14T12:10:37;0.60;;;0.60;;
8791;SDS011;4432;50.890;4.744;2023-03-14T12:13:08;0.60;;;0.60;;
8791;SDS011;4432;50.890;4.744;2023-03-14T12:15:37;1.10;;;0.70;;
8791;SDS011;4432;50.890;4.744;2023-03-14T12:18:13;0.73;;;0.40;;
8791;SDS011;4432;50.890;4.744;2023-03-14T12:20:59;1.77;;;0.50;;
8791;SDS011;4432;50.890;4.744;2023-03-14T12:23:28;0.50;;;0.50;;
8791;SDS011;4432;50.890;4.744;2023-03-14T12:28:37;1.97;;;0.50;;
8791;SDS011;4432;50.890;4.744;2023-03-14T12:42:05;0.50;;;0.50;;
8791;SDS011;4432;50.890;4.744;2023-03-14T12:44:43;0.60;;;0.60;;
8791;SDS011;4432;50.890;4.744;2023-03-14T12:49:48;0.87;;;0.60;;
8791;SDS011;4432;50.890;4.744;2023-03-14T12:52:20;0.70;;;0.70;;
8791;SDS011;4432;50.890;4.744;2023-03-14T13:00:22;0.60;;;0.60;;
8791;SDS011;4432;50.890;4.744;2023-03-14T13:02:59;5.30;;;0.80;;
8791;SDS011;4432;50.890;4.744;2023-03-14T13:05:51;0.93;;;0.67;;
8791;SDS011;4432;50.890;4.744;2023-03-14T13:08:36;4.70;;;0.90;;
8791;SDS011;4432;50.890;4.744;2023-03-14T13:11:03;1.00;;;0.93;;
8791;SDS011;4432;50.890;4.744;2023-03-14T13:13:33;3.47;;;1.00;;
8791;SDS011;4432;50.890;4.744;2023-03-14T13:16:01;4.00;;;1.17;;
8791;SDS011;4432;50.890;4.744;2023-03-14T13:18:37;2.33;;;1.20;;
8791;SDS011;4432;50.890;4.744;2023-03-14T13:21:07;4.60;;;1.30;;
8791;SDS011;4432;50.890;4.744;2023-03-14T13:23:36;2.83;;;1.00;;
8791;SDS011;4432;50.890;4.744;2023-03-14T13:26:03;2.27;;;1.03;;
8791;SDS011;4432;50.890;4.744;2023-03-14T13:28:36;1.73;;;1.27;;
8791;SDS011;4432;50.890;4.744;2023-03-14T13:31:02;3.70;;;1.20;;
8791;SDS011;4432;50.890;4.744;2023-03-14T13:33:30;1.43;;;0.70;;
8791;SDS011;4432;50.890;4.744;2023-03-14T13:36:00;3.27;;;0.80;;
8791;SDS011;4432;50.890;4.744;2023-03-14T13:38:29;0.77;;;0.73;;
8791;SDS011;4432;50.890;4.744;2023-03-14T13:40:57;0.60;;;0.60;;
8791;SDS011;4432;50.890;4.744;2023-03-14T13:46:05;4.70;;;0.77;;
8791;SDS011;4432;50.890;4.744;2023-03-14T13:48:46;1.93;;;1.07;;
8791;SDS011;4432;50.890;4.744;2023-03-14T13:51:18;8.37;;;1.00;;
8791;SDS011;4432;50.890;4.744;2023-03-14T13:53:49;0.97;;;0.93;;
8791;SDS011;4432;50.890;4.744;2023-03-14T13:56:21;5.17;;;1.23;;
8791;SDS011;4432;50.890;4.744;2023-03-14T13:58:48;7.60;;;1.07;;
8791;SDS011;4432;50.890;4.744;2023-03-14T14:04:05;3.00;;;1.13;;
8791;SDS011;4432;50.890;4.744;2023-03-14T14:06:39;6.00;;;1.30;;
8791;SDS011;4432;50.890;4.744;2023-03-14T14:09:15;6.20;;;1.53;;
8791;SDS011;4432;50.890;4.744;2023-03-14T14:14:19;4.53;;;1.23;;
8791;SDS011;4432;50.890;4.744;2023-03-14T14:16:49;4.43;;;1.30;;
8791;SDS011;4432;50.890;4.744;2023-03-14T14:19:16;5.93;;;1.40;;
8791;SDS011;4432;50.890;4.744;2023-03-14T14:21:42;2.70;;;1.10;;
8791;SDS011;4432;50.890;4.744;2023-03-14T14:24:11;6.53;;;1.37;;
8791;SDS011;4432;50.890;4.744;2023-03-14T14:26:53;1.87;;;1.10;;
8791;SDS011;4432;50.890;4.744;2023-03-14T14:29:30;4.23;;;0.97;;
8791;SDS011;4432;50.890;4.744;2023-03-14T14:34:28;7.20;;;1.53;;
8791;SDS011;4432;50.890;4.744;2023-03-14T14:36:54;10.87;;;1.47;;
8791;SDS011;4432;50.890;4.744;2023-03-14T14:39:20;5.87;;;1.73;;
8791;SDS011;4432;50.890;4.744;2023-03-14T14:41:51;2.47;;;1.30;;
8791;SDS011;4432;50.890;4.744;2023-03-14T14:44:19;3.60;;;1.77;;
8791;SDS011;4432;50.890;4.744;2023-03-14T14:46:54;8.27;;;0.97;;
8791;SDS011;4432;50.890;4.744;2023-03-14T14:49:21;10.80;;;2.43;;
8791;SDS011;4432;50.890;4.744;2023-03-14T14:51:59;6.03;;;1.53;;
8791;SDS011;4432;50.890;4.744;2023-03-14T14:54:46;12.03;;;1.47;;
8791;SDS011;4432;50.890;4.744;2023-03-14T14:57:20;10.50;;;1.90;;
8791;SDS011;4432;50.890;4.744;2023-03-14T14:59:54;3.10;;;1.50;;
8791;SDS011;4432;50.890;4.744;2023-03-14T15:02:27;10.83;;;1.53;;
8791;SDS011;4432;50.890;4.744;2023-03-14T15:05:21;9.90;;;1.40;;
8791;SDS011;4432;50.890;4.744;2023-03-14T15:07:49;2.83;;;0.90;;
8791;SDS011;4432;50.890;4.744;2023-03-14T15:10:16;12.43;;;1.10;;
8791;SDS011;4432;50.890;4.744;2023-03-14T15:12:44;0.80;;;0.80;;
8791;SDS011;4432;50.890;4.744;2023-03-14T15:15:10;6.20;;;1.50;;
8791;SDS011;4432;50.890;4.744;2023-03-14T15:17:37;2.17;;;0.60;;
8791;SDS011;4432;50.890;4.744;2023-03-14T15:20:06;6.07;;;0.57;;
8791;SDS011;4432;50.890;4.744;2023-03-14T15:22:38;4.97;;;1.00;;
8791;SDS011;4432;50.890;4.744;2023-03-14T15:25:04;1.00;;;0.80;;
8791;SDS011;4432;50.890;4.744;2023-03-14T15:27:31;1.50;;;0.40;;
8791;SDS011;4432;50.890;4.744;2023-03-14T15:29:57;1.13;;;0.53;;
8791;SDS011;4432;50.890;4.744;2023-03-14T15:32:24;1.30;;;0.40;;
8791;SDS011;4432;50.890;4.744;2023-03-14T15:34:52;1.60;;;0.70;;
8791;SDS011;4432;50.890;4.744;2023-03-14T15:37:21;2.90;;;0.37;;
8791;SDS011;4432;50.890;4.744;2023-03-14T15:39:47;2.63;;;0.50;;
8791;SDS011;4432;50.890;4.744;2023-03-14T15:42:14;3.40;;;0.63;;
8791;SDS011;4432;50.890;4.744;2023-03-14T15:44:39;2.10;;;0.90;;
8791;SDS011;4432;50.890;4.744;2023-03-14T15:47:05;1.40;;;0.77;;
8791;SDS011;4432;50.890;4.744;2023-03-14T15:49:32;2.87;;;0.70;;
8791;SDS011;4432;50.890;4.744;2023-03-14T15:51:58;2.70;;;0.37;;
8791;SDS011;4432;50.890;4.744;2023-03-14T15:54:24;1.27;;;0.57;;
8791;SDS011;4432;50.890;4.744;2023-03-14T15:56:53;3.30;;;1.10;;
8791;SDS011;4432;50.890;4.744;2023-03-14T15:59:20;1.53;;;0.57;;
8791;SDS011;4432;50.890;4.744;2023-03-14T16:01:46;1.67;;;0.50;;
8791;SDS011;4432;50.890;4.744;2023-03-14T16:04:13;5.23;;;0.80;;
8791;SDS011;4432;50.890;4.744;2023-03-14T16:06:39;2.00;;;0.87;;
8791;SDS011;4432;50.890;4.744;2023-03-14T16:09:06;6.47;;;0.77;;
8791;SDS011;4432;50.890;4.744;2023-03-14T16:11:32;1.53;;;0.90;;
8791;SDS011;4432;50.890;4.744;2023-03-14T16:13:58;3.73;;;0.70;;
8791;SDS011;4432;50.890;4.744;2023-03-14T16:16:24;7.33;;;1.00;;
8791;SDS011;4432;50.890;4.744;2023-03-14T16:18:50;0.60;;;0.60;;
8791;SDS011;4432;50.890;4.744;2023-03-14T16:21:16;0.80;;;0.80;;
8791;SDS011;4432;50.890;4.744;2023-03-14T16:23:44;0.70;;;0.67;;
8791;SDS011;4432;50.890;4.744;2023-03-14T16:26:14;0.63;;;0.60;;
8791;SDS011;4432;50.890;4.744;2023-03-14T16:28:42;2.50;;;0.80;;
8791;SDS011;4432;50.890;4.744;2023-03-14T16:31:10;2.03;;;0.73;;
8791;SDS011;4432;50.890;4.744;2023-03-14T16:33:37;2.90;;;0.93;;
8791;SDS011;4432;50.890;4.744;2023-03-14T16:36:04;1.53;;;0.80;;
8791;SDS011;4432;50.890;4.744;2023-03-14T16:38:34;0.70;;;0.70;;
8791;SDS011;4432;50.890;4.744;2023-03-14T16:41:05;3.47;;;1.00;;
8791;SDS011;4432;50.890;4.744;2023-03-14T16:43:34;3.83;;;1.10;;
8791;SDS011;4432;50.890;4.744;2023-03-14T16:46:03;2.70;;;0.90;;
8791;SDS011;4432;50.890;4.744;2023-03-14T16:48:31;3.67;;;1.17;;
8791;SDS011;4432;50.890;4.744;2023-03-14T16:50:57;8.03;;;1.40;;